Time;durP1;ratioP1;P1;durP2;ratioP2;P2;SDS_P1;SDS_P2;PMS_P1;PMS_P2;Temp;Humidity;BMP_temperature;BMP_pressure;BME280_temperature;BME280_humidity;BME280_pressure;Samples;Min_cycle;Max_cycle;Signal;HPM_P1;HPM_P2
2023/08/23 00:01:32;;;;;;;5.18;2.97;;;;;;;15.38;90.18;101950.59;4989466;28;20537;-68
2023/08/23 00:03:57;;;;;;;6.15;3.33;;;;;;;15.29;91.18;101958.53;5009797;28;20034;-68
2023/08/23 00:06:23;;;;;;;7.97;3.20;;;;;;;15.29;89.74;101950.31;5010575;28;20091;-68
2023/08/23 00:08:48;;;;;;;4.20;3.28;;;;;;;15.27;90.35;101946.78;5009895;28;20025;-68
2023/08/23 00:11:14;;;;;;;2.63;2.35;;;;;;;15.27;89.72;101940.44;5011571;28;20140;-68
2023/08/23 00:13:39;;;;;;;5.30;2.55;;;;;;;15.23;89.84;101944.41;5009722;28;20036;-68
2023/08/23 00:16:04;;;;;;;5.13;3.05;;;;;;;15.23;90.12;101945.25;5011205;28;20033;-68
2023/08/23 00:18:30;;;;;;;4.38;2.40;;;;;;;15.22;90.24;101945.38;5009800;28;20068;-68
2023/08/23 00:20:55;;;;;;;7.30;2.75;;;;;;;15.15;90.41;101938.59;4993101;28;20041;-68
2023/08/23 00:23:20;;;;;;;5.28;2.58;;;;;;;15.14;90.97;101943.22;5010341;28;20470;-67
2023/08/23 00:25:46;;;;;;;4.85;2.55;;;;;;;15.10;90.48;101941.69;5011261;28;20501;-68
2023/08/23 00:28:11;;;;;;;4.03;3.22;;;;;;;15.09;90.80;101939.94;5030087;28;20420;-69
2023/08/23 00:30:36;;;;;;;7.05;2.60;;;;;;;15.07;91.58;101943.78;5030569;28;20397;-69
2023/08/23 00:33:02;;;;;;;5.53;2.83;;;;;;;15.02;91.60;101934.03;5030372;28;20065;-69
2023/08/23 00:35:27;;;;;;;5.63;3.00;;;;;;;14.99;91.62;101931.53;5026450;28;20045;-68
2023/08/23 00:37:52;;;;;;;4.50;2.25;;;;;;;14.94;90.85;101925.50;5009812;28;20042;-68
2023/08/23 00:40:18;;;;;;;7.43;2.88;;;;;;;14.90;91.39;101928.59;5010678;28;20036;-68
2023/08/23 00:42:44;;;;;;;3.38;2.47;;;;;;;14.88;91.74;101916.88;5019651;28;20088;-68
2023/08/23 00:45:10;;;;;;;5.32;2.65;;;;;;;14.85;91.98;101920.69;5006124;28;20482;-71
2023/08/23 00:47:35;;;;;;;6.65;2.63;;;;;;;14.81;91.79;101916.44;5005390;28;20033;-70
2023/08/23 00:50:03;;;;;;;4.35;2.53;;;;;;;14.83;91.41;101916.31;5022715;28;20067;-68
2023/08/23 00:52:28;;;;;;;4.50;2.38;;;;;;;14.79;92.12;101915.69;5027584;28;20022;-68
2023/08/23 00:54:55;;;;;;;4.97;2.38;;;;;;;14.79;92.03;101910.19;5026986;28;20091;-68
2023/08/23 00:57:21;;;;;;;2.70;2.38;;;;;;;14.77;92.15;101901.19;5009232;28;20068;-68
2023/08/23 00:59:47;;;;;;;4.68;2.13;;;;;;;14.77;91.57;101907.56;5009707;28;20060;-68
2023/08/23 01:02:13;;;;;;;4.05;2.03;;;;;;;14.75;91.40;101905.94;5010667;28;20040;-69
2023/08/23 01:04:38;;;;;;;4.40;2.15;;;;;;;14.72;91.51;101914.34;5024836;28;20389;-68
2023/08/23 01:07:13;;;;;;;5.60;2.10;;;;;;;14.67;91.45;101911.09;5029571;28;20025;-71
2023/08/23 01:09:54;;;;;;;5.25;2.17;;;;;;;14.66;91.44;101907.47;5020389;28;20038;-68
2023/08/23 01:12:28;;;;;;;4.05;2.28;;;;;;;14.64;92.05;101912.19;5021507;28;20064;-68
2023/08/23 01:15:07;;;;;;;3.50;2.05;;;;;;;14.62;91.29;101910.53;5026051;28;20096;-69
2023/08/23 01:17:34;;;;;;;5.28;2.17;;;;;;;14.60;91.72;101918.00;5008906;28;20486;-69
2023/08/23 01:20:02;;;;;;;3.17;2.35;;;;;;;14.57;91.58;101919.09;5016600;28;20065;-68
2023/08/23 01:22:30;;;;;;;3.35;2.15;;;;;;;14.55;91.72;101918.34;5026586;28;20051;-69
2023/08/23 01:24:56;;;;;;;4.32;1.75;;;;;;;14.51;92.02;101914.94;5009102;28;20092;-69
2023/08/23 01:27:21;;;;;;;7.70;2.67;;;;;;;14.48;92.46;101923.38;4991535;28;20092;-69
2023/08/23 01:29:47;;;;;;;4.68;2.53;;;;;;;14.42;92.38;101917.44;5009656;28;20040;-69
2023/08/23 01:32:33;;;;;;;3.35;2.53;;;;;;;14.40;92.26;101924.84;5006817;28;20033;-69
2023/08/23 01:35:24;;;;;;;6.90;2.67;;;;;;;14.37;92.34;101920.50;5009612;28;20585;-68
2023/08/23 01:37:54;;;;;;;3.40;2.30;;;;;;;14.30;93.09;101920.03;5008138;28;20049;-69
2023/08/23 01:40:19;;;;;;;2.63;2.40;;;;;;;14.26;93.11;101913.03;5017907;28;20465;-69
2023/08/23 01:42:46;;;;;;;6.18;2.53;;;;;;;14.24;93.07;101915.00;5023523;28;20029;-70
2023/08/23 01:45:12;;;;;;;5.45;2.47;;;;;;;14.25;92.61;101916.75;5019489;28;20052;-71
2023/08/23 01:47:37;;;;;;;4.57;2.50;;;;;;;14.18;95.18;101904.50;5025002;28;20033;-69
2023/08/23 01:50:03;;;;;;;4.78;2.50;;;;;;;14.13;94.07;101912.16;5025590;28;20041;-69
2023/08/23 01:52:29;;;;;;;6.53;3.00;;;;;;;14.13;94.64;101905.78;4999763;28;20037;-69
2023/08/23 01:54:54;;;;;;;9.05;2.40;;;;;;;14.16;93.20;101911.94;5025759;28;20030;-69
2023/08/23 01:57:19;;;;;;;4.82;2.42;;;;;;;14.17;92.88;101907.31;5019682;28;20041;-69
2023/08/23 01:59:47;;;;;;;4.88;2.67;;;;;;;14.19;92.79;101913.59;5028725;28;20572;-69
2023/08/23 02:02:12;;;;;;;7.13;2.63;;;;;;;14.18;92.85;101907.25;5026351;28;20030;-69
2023/08/23 02:04:38;;;;;;;2.85;2.10;;;;;;;14.17;93.38;101908.19;5027459;28;20091;-69
2023/08/23 02:07:03;;;;;;;4.55;2.30;;;;;;;14.18;92.85;101909.09;5026460;28;20037;-69
2023/08/23 02:09:31;;;;;;;4.65;2.03;;;;;;;14.17;92.73;101910.06;5027161;28;20033;-69
2023/08/23 02:11:56;;;;;;;5.30;2.35;;;;;;;14.13;92.94;101901.22;5025445;28;20032;-69
2023/08/23 02:14:22;;;;;;;2.70;1.92;;;;;;;14.09;92.70;101901.53;5043660;28;20120;-69
2023/08/23 02:16:48;;;;;;;4.03;2.38;;;;;;;14.04;92.92;101897.25;5025958;28;20466;-69
2023/08/23 02:19:13;;;;;;;4.28;2.53;;;;;;;14.03;92.97;101905.56;5009043;28;20037;-68
2023/08/23 02:21:39;;;;;;;6.85;2.40;;;;;;;13.97;92.46;101906.00;5008436;28;20096;-70
2023/08/23 02:24:04;;;;;;;4.05;2.45;;;;;;;13.91;93.62;101904.56;5025677;28;20444;-69
2023/08/23 02:26:30;;;;;;;3.85;2.58;;;;;;;13.90;93.81;101904.69;4995989;28;20037;-69
2023/08/23 02:28:55;;;;;;;5.70;2.60;;;;;;;13.83;94.31;101901.50;4990363;28;20065;-69
2023/08/23 02:31:21;;;;;;;3.83;2.33;;;;;;;13.86;93.32;101895.81;5006439;28;20034;-69
2023/08/23 02:33:46;;;;;;;6.30;2.40;;;;;;;13.85;93.43;101896.81;5007831;28;20033;-68
2023/08/23 02:36:12;;;;;;;4.28;2.30;;;;;;;13.85;93.68;101898.63;5007274;28;20060;-69
2023/08/23 02:38:37;;;;;;;4.10;2.13;;;;;;;13.84;92.79;101896.88;5008524;28;20878;-69
2023/08/23 02:41:03;;;;;;;4.75;2.13;;;;;;;13.86;93.05;101903.16;5020254;28;20575;-69
2023/08/23 02:43:29;;;;;;;4.47;2.47;;;;;;;13.83;92.94;101898.75;4990423;28;20041;-69
2023/08/23 02:45:54;;;;;;;5.90;2.65;;;;;;;13.83;94.05;101887.81;5018004;28;20105;-69
2023/08/23 02:48:19;;;;;;;3.63;2.30;;;;;;;13.79;94.21;101900.81;5027166;28;20034;-69
2023/08/23 02:50:45;;;;;;;5.90;2.60;;;;;;;13.77;94.16;101899.19;5026580;28;20037;-69
2023/08/23 02:53:10;;;;;;;4.95;2.60;;;;;;;13.78;94.18;101898.19;5027262;28;20069;-71
2023/08/23 02:55:37;;;;;;;5.68;2.50;;;;;;;13.77;94.09;101901.91;5024412;28;20040;-69
2023/08/23 02:58:03;;;;;;;4.90;2.38;;;;;;;13.77;94.22;101888.25;5026985;28;20029;-69
2023/08/23 03:00:29;;;;;;;6.72;2.17;;;;;;;13.79;94.06;101886.25;5025333;28;20057;-69
2023/08/23 03:02:54;;;;;;;6.15;1.77;;;;;;;13.78;94.11;101887.25;5025062;28;20037;-69
2023/08/23 03:05:20;;;;;;;8.75;2.35;;;;;;;13.77;94.53;101888.25;5022380;28;20044;-69
2023/08/23 03:07:45;;;;;;;5.60;2.30;;;;;;;13.72;94.09;101883.09;5007960;28;20034;-69
2023/08/23 03:10:12;;;;;;;5.95;2.30;;;;;;;13.66;94.05;101879.88;5010011;28;20091;-71
2023/08/23 03:12:37;;;;;;;7.18;2.42;;;;;;;13.60;94.67;101885.78;5025318;28;20566;-69
2023/08/23 03:15:03;;;;;;;5.00;2.50;;;;;;;13.58;93.61;101880.44;5026244;28;20069;-68
2023/08/23 03:17:29;;;;;;;10.10;2.90;;;;;;;13.57;93.61;101881.41;5036097;28;20132;-69
2023/08/23 03:19:56;;;;;;;5.07;2.10;;;;;;;13.55;93.76;101877.03;5026388;28;20171;-68
2023/08/23 03:22:21;;;;;;;4.95;2.08;;;;;;;13.53;93.33;101883.47;5026150;28;20778;-69
2023/08/23 03:24:47;;;;;;;2.92;1.83;;;;;;;13.53;94.20;101883.47;5027047;28;20108;-69
2023/08/23 03:27:12;;;;;;;5.25;1.95;;;;;;;13.46;93.84;101873.94;5026346;28;20141;-69
2023/08/23 03:29:37;;;;;;;5.88;1.70;;;;;;;13.44;94.66;101880.50;5026017;28;20041;-69
2023/08/23 03:32:04;;;;;;;4.90;1.77;;;;;;;13.38;95.41;101879.06;5024949;28;20596;-70
2023/08/23 03:34:29;;;;;;;3.70;2.20;;;;;;;13.37;94.41;101876.41;5027369;28;20473;-69
2023/08/23 03:36:55;;;;;;;5.53;2.28;;;;;;;13.35;94.24;101873.78;5024825;28;20044;-69
2023/08/23 03:39:20;;;;;;;3.05;2.25;;;;;;;13.37;94.14;101887.34;5030066;28;20034;-69
2023/08/23 03:41:47;;;;;;;3.80;2.25;;;;;;;13.37;93.91;101887.34;5028619;28;20150;-68
2023/08/23 03:44:12;;;;;;;3.15;2.10;;;;;;;13.38;93.83;101880.91;5031766;28;20461;-69
2023/08/23 03:46:37;;;;;;;4.07;2.00;;;;;;;13.35;93.99;101871.06;5028196;28;20044;-68
2023/08/23 03:49:03;;;;;;;4.88;2.38;;;;;;;13.36;94.98;101881.00;5030545;28;20492;-69
2023/08/23 03:51:28;;;;;;;7.18;2.30;;;;;;;13.33;94.63;101881.19;5029138;28;20040;-69
2023/08/23 03:53:54;;;;;;;8.23;2.40;;;;;;;13.30;95.22;101875.09;5029792;28;20036;-69
2023/08/23 03:56:19;;;;;;;2.60;2.10;;;;;;;13.27;95.69;101884.38;5017796;28;20034;-68
2023/08/23 03:58:45;;;;;;;6.25;2.63;;;;;;;13.25;95.08;101884.47;5011113;28;20060;-69
2023/08/23 04:01:10;;;;;;;5.22;2.00;;;;;;;13.28;95.05;101889.72;5011046;28;20091;-69
2023/08/23 04:03:35;;;;;;;6.53;2.40;;;;;;;13.28;95.41;101886.09;5010554;28;20113;-68
2023/08/23 04:06:02;;;;;;;6.88;2.80;;;;;;;13.31;95.65;101885.91;5011125;28;20061;-68
2023/08/23 04:08:27;;;;;;;20.02;2.67;;;;;;;13.31;96.00;101876.84;5011141;28;20049;-69
2023/08/23 04:10:53;;;;;;;6.18;2.70;;;;;;;13.32;95.40;101881.31;5016614;28;20480;-69
2023/08/23 04:13:18;;;;;;;4.78;2.47;;;;;;;13.31;96.68;101883.19;5029220;28;20063;-69
2023/08/23 04:15:44;;;;;;;4.80;2.53;;;;;;;13.32;95.12;101895.84;5027656;28;20129;-68
2023/08/23 04:18:10;;;;;;;3.65;2.40;;;;;;;13.31;95.52;101893.25;4993260;28;20754;-70
2023/08/23 04:20:37;;;;;;;2.63;2.22;;;;;;;13.30;95.20;101894.22;5009449;28;20121;-70
2023/08/23 04:23:03;;;;;;;4.30;2.60;;;;;;;13.30;94.84;101900.56;5012607;28;20076;-69
2023/08/23 04:25:29;;;;;;;4.53;2.33;;;;;;;13.29;94.11;101882.41;5028722;28;20033;-68
2023/08/23 04:27:55;;;;;;;5.60;3.10;;;;;;;13.31;94.12;101898.72;5012238;28;20124;-68
2023/08/23 04:30:21;;;;;;;5.30;3.90;;;;;;;13.27;93.96;101885.22;4992589;28;20129;-69
2023/08/23 04:32:46;;;;;;;5.85;2.42;;;;;;;13.22;93.83;101887.41;5008572;28;20437;-69
2023/08/23 04:35:11;;;;;;;6.28;2.47;;;;;;;13.20;94.40;101889.34;5016528;28;20021;-70
2023/08/23 04:37:37;;;;;;;7.07;2.80;;;;;;;13.15;94.94;101894.25;5028819;28;20037;-69
2023/08/23 04:40:07;;;;;;;4.47;2.15;;;;;;;13.15;94.69;101898.78;5026632;28;20029;-69
2023/08/23 04:42:33;;;;;;;4.70;2.40;;;;;;;13.16;94.89;101898.72;4992867;28;20120;-69
2023/08/23 04:45:02;;;;;;;7.25;2.78;;;;;;;13.20;94.67;101893.94;5025335;28;20056;-68
2023/08/23 04:47:29;;;;;;;3.72;2.50;;;;;;;13.20;95.29;101893.94;5025865;28;20413;-69
2023/08/23 04:49:55;;;;;;;8.85;2.72;;;;;;;13.27;95.29;101898.03;5027946;28;20033;-68
2023/08/23 04:52:20;;;;;;;5.05;2.85;;;;;;;13.28;95.20;101895.19;5019902;28;20056;-69
2023/08/23 04:54:46;;;;;;;7.05;3.30;;;;;;;13.27;95.26;101887.09;5008218;28;20072;-71
2023/08/23 04:57:11;;;;;;;5.32;3.08;;;;;;;13.28;95.33;101888.84;5016771;28;20033;-69
2023/08/23 04:59:36;;;;;;;5.18;3.08;;;;;;;13.27;96.13;101890.69;5019725;28;20525;-69
2023/08/23 05:02:02;;;;;;;5.70;2.95;;;;;;;13.27;95.41;101890.69;5008576;28;20902;-68
2023/08/23 05:04:28;;;;;;;4.57;2.97;;;;;;;13.31;95.81;101890.50;5022198;28;20025;-69
2023/08/23 05:06:53;;;;;;;4.30;3.20;;;;;;;13.34;95.91;101885.72;5007953;28;20168;-69
2023/08/23 05:09:19;;;;;;;10.15;3.40;;;;;;;13.38;95.63;101890.00;5021452;28;20136;-69
2023/08/23 05:11:44;;;;;;;7.13;3.17;;;;;;;13.45;96.52;101887.72;5022741;28;20040;-71
2023/08/23 05:14:10;;;;;;;4.50;2.90;;;;;;;13.51;96.67;101887.28;5008134;28;20036;-69
2023/08/23 05:16:35;;;;;;;5.35;2.88;;;;;;;13.56;96.86;101882.38;5023129;28;20083;-69
2023/08/23 05:19:01;;;;;;;5.03;2.92;;;;;;;13.59;97.45;101871.25;5025580;28;20033;-71
2023/08/23 05:21:26;;;;;;;5.03;3.50;;;;;;;13.64;97.90;101888.19;5009397;28;20390;-69
2023/08/23 05:23:52;;;;;;;3.30;2.90;;;;;;;13.70;97.77;101885.03;5009293;28;20559;-68
2023/08/23 05:26:18;;;;;;;6.53;3.05;;;;;;;13.74;98.00;101883.84;5010372;28;20021;-69
2023/08/23 05:28:44;;;;;;;6.07;3.40;;;;;;;13.80;98.15;101877.06;5009776;28;20034;-71
2023/08/23 05:31:09;;;;;;;7.35;3.22;;;;;;;13.85;98.24;101884.94;5013727;28;20084;-69
2023/08/23 05:33:35;;;;;;;6.38;3.10;;;;;;;13.85;98.76;101887.69;5007234;28;20121;-70
2023/08/23 05:36:02;;;;;;;8.05;3.17;;;;;;;13.88;97.91;101885.63;5001002;28;20033;-68
2023/08/23 05:38:29;;;;;;;5.88;3.45;;;;;;;13.94;98.52;101889.78;5011535;28;20044;-69
2023/08/23 05:40:55;;;;;;;4.20;3.22;;;;;;;13.99;98.15;101893.09;5025850;28;20079;-70
2023/08/23 05:43:22;;;;;;;5.70;3.55;;;;;;;14.03;97.81;101892.78;5009143;28;20489;-69
2023/08/23 05:45:50;;;;;;;4.40;3.17;;;;;;;14.03;98.45;101892.78;5018404;28;20580;-69
2023/08/23 05:48:16;;;;;;;7.00;3.55;;;;;;;14.03;97.84;101894.63;5025660;28;20024;-69
2023/08/23 05:50:41;;;;;;;3.55;3.15;;;;;;;14.01;97.96;101889.25;5026926;28;20432;-69
2023/08/23 05:53:10;;;;;;;6.72;3.47;;;;;;;14.02;97.21;101887.41;5013945;28;20108;-70
2023/08/23 05:55:36;;;;;;;4.78;3.50;;;;;;;14.03;98.00;101897.34;5010934;28;20037;-69
2023/08/23 05:58:02;;;;;;;9.70;4.57;;;;;;;14.02;98.46;101901.06;5019562;28;20041;-68
2023/08/23 06:00:27;;;;;;;8.15;3.92;;;;;;;14.00;98.66;101903.94;5027517;28;20084;-70
2023/08/23 06:02:52;;;;;;;7.95;4.18;;;;;;;14.01;98.97;101894.72;5027565;28;20050;-69
2023/08/23 06:05:18;;;;;;;8.15;3.67;;;;;;;14.05;98.29;101898.13;5026179;28;20136;-69
2023/08/23 06:07:43;;;;;;;5.72;3.85;;;;;;;14.11;97.76;101899.56;5027108;28;20076;-69
2023/08/23 06:10:09;;;;;;;8.20;4.43;;;;;;;14.14;97.88;101904.81;5026004;28;20107;-68
2023/08/23 06:12:34;;;;;;;5.80;3.88;;;;;;;14.17;97.79;101907.31;5013955;28;20042;-69
2023/08/23 06:15:00;;;;;;;8.57;4.20;;;;;;;14.22;97.92;101907.88;5006918;28;20069;-68
2023/08/23 06:17:26;;;;;;;7.28;4.40;;;;;;;14.26;98.14;101895.72;5007410;28;20041;-69
2023/08/23 06:19:51;;;;;;;6.55;4.78;;;;;;;14.31;98.50;101901.75;5008825;28;20042;-69
2023/08/23 06:22:17;;;;;;;5.65;4.55;;;;;;;14.37;98.37;101904.06;5008451;28;20486;-69
2023/08/23 06:24:42;;;;;;;9.85;4.20;;;;;;;14.42;97.10;101912.81;5009402;28;20401;-69
2023/08/23 06:27:08;;;;;;;7.55;4.82;;;;;;;14.47;97.85;101904.28;5008686;28;20025;-68
2023/08/23 06:29:33;;;;;;;5.82;3.95;;;;;;;14.54;97.63;101913.81;5008428;28;20137;-69
2023/08/23 06:31:59;;;;;;;8.43;5.28;;;;;;;14.61;98.95;101911.53;5005966;28;20774;-70
2023/08/23 06:34:25;;;;;;;7.05;5.07;;;;;;;14.70;98.26;101913.59;5009087;28;20405;-69
2023/08/23 06:36:50;;;;;;;10.27;6.43;;;;;;;14.78;99.91;101906.59;5027841;28;20061;-69
2023/08/23 06:39:16;;;;;;;8.68;6.30;;;;;;;14.86;99.98;101902.38;5026886;28;20078;-70
2023/08/23 06:41:42;;;;;;;7.95;5.90;;;;;;;14.93;100.00;101904.56;5014038;28;20041;-71
2023/08/23 06:44:07;;;;;;;9.80;6.55;;;;;;;15.02;100.00;101914.00;5008097;28;20033;-69
2023/08/23 06:46:32;;;;;;;11.13;6.15;;;;;;;15.09;100.00;101904.31;4998225;28;20033;-69
2023/08/23 06:48:58;;;;;;;11.18;8.90;;;;;;;15.20;100.00;101906.22;5025857;28;20040;-69
2023/08/23 06:51:27;;;;;;;10.80;8.23;;;;;;;15.25;100.00;101904.91;5027731;28;20546;-69
2023/08/23 06:53:53;;;;;;;15.80;10.35;;;;;;;15.38;100.00;101903.97;5011641;28;20072;-70
2023/08/23 06:56:18;;;;;;;22.23;12.90;;;;;;;15.49;100.00;101909.53;5015225;28;20069;-69
2023/08/23 06:58:43;;;;;;;19.52;12.90;;;;;;;15.62;100.00;101915.84;5007038;28;20580;-69
2023/08/23 07:01:14;;;;;;;20.77;12.25;;;;;;;15.70;100.00;101926.25;5007361;28;20131;-69
2023/08/23 07:03:43;;;;;;;19.08;11.93;;;;;;;15.73;100.00;101928.75;5006150;28;20080;-70
2023/08/23 07:06:13;;;;;;;19.45;16.77;;;;;;;15.79;100.00;101929.16;5008115;28;20104;-69
2023/08/23 07:08:40;;;;;;;22.65;17.98;;;;;;;15.89;100.00;101920.19;5006789;28;20140;-70
2023/08/23 07:11:05;;;;;;;20.70;17.23;;;;;;;15.94;100.00;101921.59;5008263;28;20037;-70
2023/08/23 07:13:31;;;;;;;19.38;16.15;;;;;;;15.99;100.00;101924.88;5007275;28;20060;-71
2023/08/23 07:15:56;;;;;;;19.98;17.00;;;;;;;16.04;100.00;101928.13;5007215;28;20045;-71
2023/08/23 07:18:21;;;;;;;25.45;22.73;;;;;;;16.13;100.00;101931.13;5022125;28;20041;-70
2023/08/23 07:20:47;;;;;;;26.63;23.88;;;;;;;16.20;100.00;101929.66;5026123;28;20481;-70
2023/08/23 07:23:12;;;;;;;27.88;25.05;;;;;;;16.28;100.00;101929.94;5026852;28;20774;-69
2023/08/23 07:25:37;;;;;;;29.55;26.55;;;;;;;16.37;100.00;101929.22;5021484;28;20104;-70
2023/08/23 07:28:03;;;;;;;26.20;23.30;;;;;;;16.43;100.00;101936.94;5024186;28;20042;-70
2023/08/23 07:30:28;;;;;;;19.75;16.73;;;;;;;16.50;100.00;101948.31;5026460;28;20144;-69
2023/08/23 07:32:54;;;;;;;21.60;17.02;;;;;;;16.57;100.00;101946.84;5024389;28;20037;-68
2023/08/23 07:35:19;;;;;;;18.60;14.85;;;;;;;16.69;100.00;101953.19;5027323;28;20041;-69
2023/08/23 07:37:45;;;;;;;16.20;12.38;;;;;;;16.81;100.00;101953.13;5026199;28;20053;-70
2023/08/23 07:40:10;;;;;;;20.65;13.85;;;;;;;16.90;100.00;101947.88;5019993;28;20091;-69
2023/08/23 07:42:36;;;;;;;15.80;12.20;;;;;;;17.00;100.00;101947.00;5007823;28;20476;-69
2023/08/23 07:45:01;;;;;;;14.48;11.95;;;;;;;17.08;100.00;101950.00;5006522;28;20041;-68
2023/08/23 07:47:27;;;;;;;15.82;10.90;;;;;;;17.17;100.00;101953.88;5006054;28;20037;-71
2023/08/23 07:49:52;;;;;;;15.10;11.63;;;;;;;17.23;100.00;101960.72;5007933;28;20493;-68
2023/08/23 07:52:17;;;;;;;12.88;10.77;;;;;;;17.32;100.00;101957.22;5007654;28;20042;-69
2023/08/23 07:54:43;;;;;;;13.75;9.82;;;;;;;17.40;100.00;101951.09;5008324;28;20052;-69
2023/08/23 07:57:09;;;;;;;12.75;10.10;;;;;;;17.59;99.81;101948.53;4990732;28;20489;-68
2023/08/23 07:59:34;;;;;;;17.85;10.25;;;;;;;17.76;98.87;101948.00;5007712;28;20116;-70
2023/08/23 08:02:00;;;;;;;13.70;9.15;;;;;;;17.85;97.32;101954.59;5004882;28;20069;-69
2023/08/23 08:04:25;;;;;;;14.48;9.40;;;;;;;17.93;96.86;101957.56;5005994;28;20037;-68
2023/08/23 08:06:50;;;;;;;12.63;9.23;;;;;;;17.99;95.84;101951.53;5013962;28;20543;-71
2023/08/23 08:09:16;;;;;;;13.32;9.20;;;;;;;18.07;95.91;101950.88;5027333;28;20478;-69
2023/08/23 08:11:41;;;;;;;14.93;8.85;;;;;;;18.16;95.13;101952.81;5013667;28;20046;-71
2023/08/23 08:14:07;;;;;;;15.85;8.45;;;;;;;18.23;92.89;101944.88;5007314;28;20041;-68
2023/08/23 08:16:32;;;;;;;12.98;8.20;;;;;;;18.40;92.30;101948.94;5006633;28;20133;-68
2023/08/23 08:18:57;;;;;;;11.20;8.73;;;;;;;18.88;94.94;101951.09;5026282;28;20463;-69
2023/08/23 08:21:23;;;;;;;13.40;9.10;;;;;;;19.38;91.17;101943.75;5027041;28;20484;-68
2023/08/23 08:23:48;;;;;;;12.52;8.32;;;;;;;19.95;89.33;101955.91;5025265;28;20041;-69
2023/08/23 08:26:14;;;;;;;10.55;8.70;;;;;;;20.30;85.35;101954.44;5025373;28;20048;-69
2023/08/23 08:28:43;;;;;;;14.35;7.15;;;;;;;20.70;83.04;101958.88;5011493;28;20025;-69
2023/08/23 08:31:10;;;;;;;7.53;6.38;;;;;;;20.97;81.66;101958.94;5010575;28;20038;-68
2023/08/23 08:33:37;;;;;;;10.80;6.30;;;;;;;21.04;78.00;101962.00;5010549;28;20536;-68
2023/08/23 08:36:02;;;;;;;9.27;5.13;;;;;;;21.31;78.71;101958.38;5024316;28;20343;-68
2023/08/23 08:38:27;;;;;;;12.65;6.97;;;;;;;21.38;77.09;101953.97;5030596;28;20040;-69
2023/08/23 08:40:53;;;;;;;8.75;6.20;;;;;;;21.70;76.24;101955.38;5028194;28;20030;-71
2023/08/23 08:43:19;;;;;;;7.50;5.40;;;;;;;22.23;77.35;101944.31;5010880;28;20045;-69
2023/08/23 08:45:45;;;;;;;8.25;5.50;;;;;;;22.62;76.76;101947.56;5010202;28;20473;-68
2023/08/23 08:48:10;;;;;;;9.82;5.70;;;;;;;23.05;75.95;101942.13;5022439;28;20064;-69
2023/08/23 08:50:36;;;;;;;10.20;4.90;;;;;;;23.37;71.35;101941.38;5027618;28;20069;-68
2023/08/23 08:53:06;;;;;;;7.35;5.60;;;;;;;23.61;72.73;101944.22;5010592;28;20073;-68
2023/08/23 08:55:32;;;;;;;9.18;5.32;;;;;;;23.95;67.48;101947.97;4997011;28;20069;-68
2023/08/23 08:57:58;;;;;;;8.02;5.18;;;;;;;24.25;68.13;101944.50;5011277;28;20062;-69
2023/08/23 09:00:25;;;;;;;8.07;5.63;;;;;;;24.38;63.69;101942.09;5009088;28;20062;-68
2023/08/23 09:02:54;;;;;;;12.23;5.80;;;;;;;24.59;66.33;101944.34;5009659;28;20475;-68
2023/08/23 09:05:20;;;;;;;10.50;5.70;;;;;;;24.78;63.52;101945.88;5010432;28;20038;-69
2023/08/23 09:07:46;;;;;;;7.53;4.60;;;;;;;25.03;63.30;101937.44;5008855;28;20032;-68
2023/08/23 09:10:13;;;;;;;7.43;4.15;;;;;;;25.19;62.36;101943.84;5009571;28;20042;-69
2023/08/23 09:12:38;;;;;;;7.05;3.97;;;;;;;25.39;61.66;101941.47;5010126;28;20053;-69
2023/08/23 09:15:04;;;;;;;6.15;3.70;;;;;;;25.62;59.31;101951.81;5008816;28;20065;-68
2023/08/23 09:17:36;;;;;;;7.57;3.78;;;;;;;25.63;58.97;101931.25;5021231;28;20030;-68
2023/08/23 09:20:08;;;;;;;;;;;;;;;25.80;65.58;101940.41;5030225;28;20116;-68
2023/08/23 09:22:34;;;;;;;6.13;3.40;;;;;;;26.18;60.33;101938.56;5025061;28;20383;-69
2023/08/23 09:25:04;;;;;;;9.20;4.18;;;;;;;26.36;58.71;101943.81;5009603;28;20038;-69
2023/08/23 09:27:30;;;;;;;7.57;3.83;;;;;;;26.36;55.18;101935.44;5016605;28;20128;-68
2023/08/23 09:29:57;;;;;;;6.13;3.20;;;;;;;26.71;58.59;101940.31;5010017;28;20034;-68
2023/08/23 09:32:23;;;;;;;4.90;2.92;;;;;;;27.00;56.58;101946.13;5008167;28;20561;-67
2023/08/23 09:34:48;;;;;;;7.00;3.55;;;;;;;26.99;55.91;101948.06;5010035;28;20112;-70
2023/08/23 09:37:14;;;;;;;6.28;3.50;;;;;;;27.29;57.04;101950.88;5009348;28;20030;-68
2023/08/23 09:39:39;;;;;;;4.40;3.30;;;;;;;27.25;53.97;101947.59;5017677;28;20028;-68
2023/08/23 09:42:06;;;;;;;9.57;3.70;;;;;;;27.49;55.04;101940.81;5019893;28;20040;-68
2023/08/23 09:44:39;;;;;;;4.50;3.10;;;;;;;27.77;57.04;101940.09;5029091;28;20080;-69
2023/08/23 09:47:08;;;;;;;5.90;3.75;;;;;;;27.76;53.66;101935.56;5027766;28;21104;-70
2023/08/23 09:49:34;;;;;;;7.15;3.60;;;;;;;27.80;55.01;101934.97;5013371;28;20444;-68
2023/08/23 09:52:01;;;;;;;5.65;3.35;;;;;;;27.89;52.17;101932.94;5009271;28;20108;-68
2023/08/23 09:54:38;;;;;;;7.28;3.60;;;;;;;27.95;54.85;101935.78;5008374;28;20045;-67
2023/08/23 09:57:05;;;;;;;9.35;3.67;;;;;;;28.17;54.51;101938.59;5024994;28;20037;-69
2023/08/23 09:59:31;;;;;;;4.60;3.13;;;;;;;28.22;54.71;101938.84;5028787;28;20140;-70
2023/08/23 10:01:57;;;;;;;7.20;3.72;;;;;;;28.25;50.36;101938.44;5027648;28;20072;-67
2023/08/23 10:04:24;;;;;;;4.22;3.08;;;;;;;28.44;52.61;101939.69;5013883;28;20401;-69
2023/08/23 10:06:52;;;;;;;5.40;2.95;;;;;;;28.57;52.70;101945.41;5008761;28;20077;-68
2023/08/23 10:09:20;;;;;;;8.55;3.40;;;;;;;28.69;51.32;101949.41;5008940;28;20038;-67
2023/08/23 10:11:47;;;;;;;7.80;3.55;;;;;;;28.71;51.10;101944.44;5015456;28;20508;-67
2023/08/23 10:14:14;;;;;;;6.72;4.00;;;;;;;28.83;51.13;101939.16;5009327;28;20042;-67
2023/08/23 10:16:40;;;;;;;6.28;3.40;;;;;;;29.01;48.11;101937.81;5008518;28;20037;-69
2023/08/23 10:19:06;;;;;;;6.78;3.50;;;;;;;28.93;47.75;101931.25;5025903;28;20512;-66
2023/08/23 10:21:31;;;;;;;7.60;3.50;;;;;;;28.95;50.91;101940.31;5019380;28;20116;-67
2023/08/23 10:23:56;;;;;;;7.32;3.50;;;;;;;28.99;48.12;101937.97;5007455;28;20050;-68
2023/08/23 10:26:22;;;;;;;7.97;4.45;;;;;;;28.95;49.85;101940.31;5008971;28;20045;-67
2023/08/23 10:28:53;;;;;;;8.52;4.00;;;;;;;29.03;48.86;101938.44;5013272;28;20032;-68
2023/08/23 10:31:25;;;;;;;9.80;4.97;;;;;;;29.21;49.76;101931.22;5007566;28;20038;-68
2023/08/23 10:33:57;;;;;;;7.18;4.15;;;;;;;29.36;49.81;101931.06;5024231;28;20053;-70
2023/08/23 10:36:25;;;;;;;8.20;3.60;;;;;;;29.49;49.23;101933.94;5027935;28;20041;-67
2023/08/23 10:38:50;;;;;;;6.97;4.05;;;;;;;29.56;49.00;101927.50;5014984;28;20488;-69
2023/08/23 10:41:17;;;;;;;5.15;3.28;;;;;;;29.84;48.29;101928.22;5017880;28;20038;-67
2023/08/23 10:43:42;;;;;;;10.45;3.95;;;;;;;29.90;47.81;101924.59;5008593;28;20108;-68
2023/08/23 10:46:08;;;;;;;7.03;4.03;;;;;;;30.15;46.79;101924.00;5007339;28;20112;-68
2023/08/23 10:48:34;;;;;;;5.50;3.50;;;;;;;30.08;45.98;101917.47;5006824;28;20038;-68
2023/08/23 10:51:01;;;;;;;5.78;3.42;;;;;;;30.20;47.59;101916.66;5008277;28;20430;-68
2023/08/23 10:53:26;;;;;;;8.07;3.78;;;;;;;30.34;44.72;101919.47;5008353;28;20489;-69
2023/08/23 10:55:52;;;;;;;6.40;3.35;;;;;;;30.44;44.46;101928.31;5008383;28;20038;-67
2023/08/23 10:58:17;;;;;;;6.50;3.25;;;;;;;30.44;45.08;101919.91;5024908;28;20087;-67
2023/08/23 11:00:45;;;;;;;6.95;3.22;;;;;;;30.37;44.30;101908.69;5026244;28;20080;-71
2023/08/23 11:03:12;;;;;;;7.70;3.85;;;;;;;30.42;45.21;101902.41;5027463;28;20037;-68
2023/08/23 11:05:38;;;;;;;5.60;3.50;;;;;;;30.63;43.82;101910.56;5022498;28;20521;-67
2023/08/23 11:08:04;;;;;;;5.80;3.08;;;;;;;30.51;43.55;101898.28;5008012;28;20227;-67
2023/08/23 11:10:30;;;;;;;4.03;3.05;;;;;;;30.40;44.06;101888.56;5008377;28;20022;-70
2023/08/23 11:12:55;;;;;;;4.07;2.80;;;;;;;30.38;41.65;101893.53;5008145;28;20037;-68
2023/08/23 11:15:21;;;;;;;8.07;3.13;;;;;;;30.07;39.40;101898.91;5007229;28;20029;-68
2023/08/23 11:17:47;;;;;;;5.20;3.28;;;;;;;30.11;39.38;101889.84;5006107;28;20405;-69